sensor_id;sensor_type;location;lat;lon;timestamp;P1;P2;P0
21358;PMS7003;13506;50.852;20.632;2023-03-01T00:01:17;125.25;99.00;58.00
21358;PMS7003;13506;50.852;20.632;2023-03-01T00:03:47;122.25;95.25;58.75
21358;PMS7003;13506;50.852;20.632;2023-03-01T00:06:15;123.25;92.00;58.50
21358;PMS7003;13506;50.852;20.632;2023-03-01T00:08:44;128.00;104.75;65.50
21358;PMS7003;13506;50.852;20.632;2023-03-01T00:11:14;117.75;92.00;57.50
21358;PMS7003;13506;50.852;20.632;2023-03-01T00:13:45;120.50;92.25;60.75
21358;PMS7003;13506;50.852;20.632;2023-03-01T00:16:15;118.25;90.25;57.50
21358;PMS7003;13506;50.852;20.632;2023-03-01T00:18:45;119.75;88.75;58.00
21358;PMS7003;13506;50.852;20.632;2023-03-01T00:21:13;128.75;98.00;59.25
21358;PMS7003;13506;50.852;20.632;2023-03-01T00:23:42;124.25;92.25;57.75
21358;PMS7003;13506;50.852;20.632;2023-03-01T00:26:10;137.50;112.50;65.75
21358;PMS7003;13506;50.852;20.632;2023-03-01T00:28:40;126.25;91.75;58.00
21358;PMS7003;13506;50.852;20.632;2023-03-01T00:31:09;120.00;90.75;58.25
21358;PMS7003;13506;50.852;20.632;2023-03-01T00:33:38;124.50;97.25;59.00
21358;PMS7003;13506;50.852;20.632;2023-03-01T00:36:06;112.00;86.75;54.00
21358;PMS7003;13506;50.852;20.632;2023-03-01T00:38:36;111.00;83.50;52.50
21358;PMS7003;13506;50.852;20.632;2023-03-01T00:41:07;123.00;92.50;57.25
21358;PMS7003;13506;50.852;20.632;2023-03-01T00:43:36;115.00;87.50;54.50
21358;PMS7003;13506;50.852;20.632;2023-03-01T00:46:05;115.00;85.50;54.00
21358;PMS7003;13506;50.852;20.632;2023-03-01T00:48:34;106.00;80.50;52.75
21358;PMS7003;13506;50.852;20.632;2023-03-01T00:51:04;111.25;84.25;55.25
21358;PMS7003;13506;50.852;20.632;2023-03-01T00:53:33;113.25;86.75;56.75
21358;PMS7003;13506;50.852;20.632;2023-03-01T00:56:02;113.25;86.25;54.50
21358;PMS7003;13506;50.852;20.632;2023-03-01T00:58:33;114.75;85.75;56.50
21358;PMS7003;13506;50.852;20.632;2023-03-01T01:01:06;118.00;88.00;56.50
21358;PMS7003;13506;50.852;20.632;2023-03-01T01:03:42;120.50;90.50;57.50
21358;PMS7003;13506;50.852;20.632;2023-03-01T01:06:15;116.00;90.25;57.50
21358;PMS7003;13506;50.852;20.632;2023-03-01T01:08:44;116.75;89.25;58.00
21358;PMS7003;13506;50.852;20.632;2023-03-01T01:11:12;118.00;87.25;56.50
21358;PMS7003;13506;50.852;20.632;2023-03-01T01:13:43;119.25;91.50;57.00
21358;PMS7003;13506;50.852;20.632;2023-03-01T01:16:12;106.00;85.25;52.50
21358;PMS7003;13506;50.852;20.632;2023-03-01T01:18:41;114.50;86.75;54.75
21358;PMS7003;13506;50.852;20.632;2023-03-01T01:21:09;107.00;83.00;53.50
21358;PMS7003;13506;50.852;20.632;2023-03-01T01:23:39;107.50;82.50;49.75
21358;PMS7003;13506;50.852;20.632;2023-03-01T01:26:09;115.50;87.25;53.75
21358;PMS7003;13506;50.852;20.632;2023-03-01T01:28:39;109.50;84.75;54.75
21358;PMS7003;13506;50.852;20.632;2023-03-01T01:31:08;113.50;88.00;54.75
21358;PMS7003;13506;50.852;20.632;2023-03-01T01:33:37;121.75;88.50;54.00
21358;PMS7003;13506;50.852;20.632;2023-03-01T01:36:06;111.00;85.00;54.00
21358;PMS7003;13506;50.852;20.632;2023-03-01T01:38:35;119.25;90.00;56.50
21358;PMS7003;13506;50.852;20.632;2023-03-01T01:41:04;108.75;84.50;55.00
21358;PMS7003;13506;50.852;20.632;2023-03-01T01:43:34;115.50;87.00;55.50
21358;PMS7003;13506;50.852;20.632;2023-03-01T01:46:04;108.00;83.25;53.75
21358;PMS7003;13506;50.852;20.632;2023-03-01T01:48:42;112.75;86.75;55.75
21358;PMS7003;13506;50.852;20.632;2023-03-01T01:51:16;122.50;90.50;58.50
21358;PMS7003;13506;50.852;20.632;2023-03-01T01:53:51;123.50;90.00;55.00
21358;PMS7003;13506;50.852;20.632;2023-03-01T01:56:25;117.25;87.75;55.00
21358;PMS7003;13506;50.852;20.632;2023-03-01T01:58:55;115.00;86.50;55.50
21358;PMS7003;13506;50.852;20.632;2023-03-01T02:01:25;119.00;85.25;52.50
21358;PMS7003;13506;50.852;20.632;2023-03-01T02:03:53;121.00;90.75;59.00
21358;PMS7003;13506;50.852;20.632;2023-03-01T02:06:24;120.00;91.25;59.50
21358;PMS7003;13506;50.852;20.632;2023-03-01T02:08:55;113.50;86.50;53.50
21358;PMS7003;13506;50.852;20.632;2023-03-01T02:11:29;117.75;91.00;57.50
21358;PMS7003;13506;50.852;20.632;2023-03-01T02:13:59;123.25;89.50;58.25
21358;PMS7003;13506;50.852;20.632;2023-03-01T02:16:28;115.00;86.50;55.50
21358;PMS7003;13506;50.852;20.632;2023-03-01T02:18:57;115.00;85.00;53.00
21358;PMS7003;13506;50.852;20.632;2023-03-01T02:21:29;110.50;87.50;58.00
21358;PMS7003;13506;50.852;20.632;2023-03-01T02:24:05;122.50;93.50;58.50
21358;PMS7003;13506;50.852;20.632;2023-03-01T02:26:46;119.25;87.50;55.75
21358;PMS7003;13506;50.852;20.632;2023-03-01T02:29:20;120.25;91.50;58.50
21358;PMS7003;13506;50.852;20.632;2023-03-01T02:31:49;123.25;92.25;56.00
21358;PMS7003;13506;50.852;20.632;2023-03-01T02:34:20;126.75;95.00;57.75
21358;PMS7003;13506;50.852;20.632;2023-03-01T02:36:52;125.25;100.00;64.50
21358;PMS7003;13506;50.852;20.632;2023-03-01T02:39:24;127.25;99.25;60.00
21358;PMS7003;13506;50.852;20.632;2023-03-01T02:41:54;120.25;91.75;59.50
21358;PMS7003;13506;50.852;20.632;2023-03-01T02:44:25;119.50;91.50;57.75
21358;PMS7003;13506;50.852;20.632;2023-03-01T02:46:55;111.50;86.00;55.00
21358;PMS7003;13506;50.852;20.632;2023-03-01T02:49:28;117.25;89.50;58.00
21358;PMS7003;13506;50.852;20.632;2023-03-01T02:54:56;119.25;88.50;57.25
21358;PMS7003;13506;50.852;20.632;2023-03-01T02:57:28;113.75;87.75;53.75
21358;PMS7003;13506;50.852;20.632;2023-03-01T03:00:01;116.25;85.50;53.75
21358;PMS7003;13506;50.852;20.632;2023-03-01T03:02:34;119.25;91.75;58.25
21358;PMS7003;13506;50.852;20.632;2023-03-01T03:05:08;110.25;83.75;51.50
21358;PMS7003;13506;50.852;20.632;2023-03-01T03:07:39;109.75;82.25;49.50
21358;PMS7003;13506;50.852;20.632;2023-03-01T03:10:09;113.00;86.75;55.50
21358;PMS7003;13506;50.852;20.632;2023-03-01T03:12:39;114.00;84.50;53.75
21358;PMS7003;13506;50.852;20.632;2023-03-01T03:15:10;118.75;87.50;57.75
21358;PMS7003;13506;50.852;20.632;2023-03-01T03:17:39;115.75;88.50;57.50
21358;PMS7003;13506;50.852;20.632;2023-03-01T03:20:10;115.25;84.75;55.00
21358;PMS7003;13506;50.852;20.632;2023-03-01T03:22:44;115.50;86.25;53.00
21358;PMS7003;13506;50.852;20.632;2023-03-01T03:25:13;105.25;81.50;51.75
21358;PMS7003;13506;50.852;20.632;2023-03-01T03:27:42;98.25;79.25;50.00
21358;PMS7003;13506;50.852;20.632;2023-03-01T03:30:13;113.75;87.25;54.00
21358;PMS7003;13506;50.852;20.632;2023-03-01T03:32:43;111.75;83.50;54.00
21358;PMS7003;13506;50.852;20.632;2023-03-01T03:35:17;101.75;77.50;49.50
21358;PMS7003;13506;50.852;20.632;2023-03-01T03:37:46;108.00;81.25;51.50
21358;PMS7003;13506;50.852;20.632;2023-03-01T03:40:32;110.25;87.25;55.75
21358;PMS7003;13506;50.852;20.632;2023-03-01T03:43:01;111.75;86.00;56.25
21358;PMS7003;13506;50.852;20.632;2023-03-01T03:45:32;96.50;77.00;49.75
21358;PMS7003;13506;50.852;20.632;2023-03-01T03:48:01;108.25;83.25;54.00
21358;PMS7003;13506;50.852;20.632;2023-03-01T03:50:31;114.75;88.50;54.75
21358;PMS7003;13506;50.852;20.632;2023-03-01T03:53:00;112.75;86.50;54.75
21358;PMS7003;13506;50.852;20.632;2023-03-01T03:55:30;105.50;80.75;52.25
21358;PMS7003;13506;50.852;20.632;2023-03-01T03:58:00;112.75;84.50;53.50
21358;PMS7003;13506;50.852;20.632;2023-03-01T04:00:33;111.75;87.25;55.00
21358;PMS7003;13506;50.852;20.632;2023-03-01T04:03:03;120.50;90.00;57.25
21358;PMS7003;13506;50.852;20.632;2023-03-01T04:05:32;103.50;76.25;48.00
21358;PMS7003;13506;50.852;20.632;2023-03-01T04:08:01;106.25;79.75;53.50
21358;PMS7003;13506;50.852;20.632;2023-03-01T04:10:33;114.25;85.50;55.25
21358;PMS7003;13506;50.852;20.632;2023-03-01T04:13:03;111.00;84.75;55.50
21358;PMS7003;13506;50.852;20.632;2023-03-01T04:15:33;103.50;78.00;49.00
21358;PMS7003;13506;50.852;20.632;2023-03-01T04:18:01;93.25;74.00;47.25
21358;PMS7003;13506;50.852;20.632;2023-03-01T04:20:31;97.50;75.50;48.00
21358;PMS7003;13506;50.852;20.632;2023-03-01T04:23:01;101.25;78.25;47.50
21358;PMS7003;13506;50.852;20.632;2023-03-01T04:25:38;97.25;77.25;48.50
21358;PMS7003;13506;50.852;20.632;2023-03-01T04:28:09;103.25;80.50;52.00
21358;PMS7003;13506;50.852;20.632;2023-03-01T04:30:39;94.00;74.00;48.50
21358;PMS7003;13506;50.852;20.632;2023-03-01T04:33:08;97.00;75.00;48.75
21358;PMS7003;13506;50.852;20.632;2023-03-01T04:35:37;97.00;73.75;47.00
21358;PMS7003;13506;50.852;20.632;2023-03-01T04:38:06;97.75;73.50;45.75
21358;PMS7003;13506;50.852;20.632;2023-03-01T04:40:34;85.00;66.25;41.00
21358;PMS7003;13506;50.852;20.632;2023-03-01T04:43:03;88.25;72.25;46.75
21358;PMS7003;13506;50.852;20.632;2023-03-01T04:45:32;85.00;68.00;43.50
21358;PMS7003;13506;50.852;20.632;2023-03-01T04:48:02;95.50;76.50;49.25
21358;PMS7003;13506;50.852;20.632;2023-03-01T04:50:31;106.75;78.00;49.75
21358;PMS7003;13506;50.852;20.632;2023-03-01T04:52:59;95.75;74.25;46.75
21358;PMS7003;13506;50.852;20.632;2023-03-01T04:55:27;96.00;75.00;46.00
21358;PMS7003;13506;50.852;20.632;2023-03-01T04:57:57;91.75;72.50;47.50
21358;PMS7003;13506;50.852;20.632;2023-03-01T05:00:24;97.25;70.50;44.50
21358;PMS7003;13506;50.852;20.632;2023-03-01T05:02:53;89.00;68.50;43.25
21358;PMS7003;13506;50.852;20.632;2023-03-01T05:05:25;91.00;72.75;46.00
21358;PMS7003;13506;50.852;20.632;2023-03-01T05:07:55;107.00;84.25;56.00
21358;PMS7003;13506;50.852;20.632;2023-03-01T05:10:26;100.25;76.50;48.50
21358;PMS7003;13506;50.852;20.632;2023-03-01T05:12:56;100.50;81.50;49.75
21358;PMS7003;13506;50.852;20.632;2023-03-01T05:15:24;102.50;81.50;49.75
21358;PMS7003;13506;50.852;20.632;2023-03-01T05:17:53;104.25;77.50;48.00
21358;PMS7003;13506;50.852;20.632;2023-03-01T05:20:25;102.25;81.25;51.50
21358;PMS7003;13506;50.852;20.632;2023-03-01T05:22:55;91.00;73.00;48.00
21358;PMS7003;13506;50.852;20.632;2023-03-01T05:25:25;99.25;74.75;48.00
21358;PMS7003;13506;50.852;20.632;2023-03-01T05:27:58;106.00;81.00;49.50
21358;PMS7003;13506;50.852;20.632;2023-03-01T05:30:30;88.50;67.50;42.75
21358;PMS7003;13506;50.852;20.632;2023-03-01T05:32:58;98.25;73.50;44.25
21358;PMS7003;13506;50.852;20.632;2023-03-01T05:35:28;93.25;71.50;45.50
21358;PMS7003;13506;50.852;20.632;2023-03-01T05:37:58;89.75;69.25;45.50
21358;PMS7003;13506;50.852;20.632;2023-03-01T05:40:26;99.75;76.75;48.25
21358;PMS7003;13506;50.852;20.632;2023-03-01T05:42:55;88.25;68.00;43.25
21358;PMS7003;13506;50.852;20.632;2023-03-01T05:45:24;85.75;70.25;45.50
21358;PMS7003;13506;50.852;20.632;2023-03-01T05:47:54;86.00;68.50;43.50
21358;PMS7003;13506;50.852;20.632;2023-03-01T05:50:22;98.00;78.00;49.25
21358;PMS7003;13506;50.852;20.632;2023-03-01T05:52:56;106.00;80.75;51.00
21358;PMS7003;13506;50.852;20.632;2023-03-01T05:55:25;104.25;79.75;50.75
21358;PMS7003;13506;50.852;20.632;2023-03-01T05:57:54;98.50;78.25;49.75
21358;PMS7003;13506;50.852;20.632;2023-03-01T06:00:24;96.25;76.50;48.75
21358;PMS7003;13506;50.852;20.632;2023-03-01T06:02:53;96.75;74.25;46.75
21358;PMS7003;13506;50.852;20.632;2023-03-01T06:05:21;100.25;78.00;49.50
21358;PMS7003;13506;50.852;20.632;2023-03-01T06:07:49;89.50;69.75;45.75
21358;PMS7003;13506;50.852;20.632;2023-03-01T06:10:20;98.75;76.75;50.25
21358;PMS7003;13506;50.852;20.632;2023-03-01T06:12:49;100.50;74.75;48.00
21358;PMS7003;13506;50.852;20.632;2023-03-01T06:15:17;91.25;72.50;47.00
21358;PMS7003;13506;50.852;20.632;2023-03-01T06:17:46;94.25;73.00;46.50
21358;PMS7003;13506;50.852;20.632;2023-03-01T06:20:14;81.50;64.50;42.75
21358;PMS7003;13506;50.852;20.632;2023-03-01T06:22:44;82.50;65.25;41.50
21358;PMS7003;13506;50.852;20.632;2023-03-01T06:25:13;91.75;70.00;46.25
21358;PMS7003;13506;50.852;20.632;2023-03-01T06:27:44;88.25;67.75;45.75
21358;PMS7003;13506;50.852;20.632;2023-03-01T06:30:14;76.75;60.25;38.25
21358;PMS7003;13506;50.852;20.632;2023-03-01T06:32:44;73.00;58.00;36.00
21358;PMS7003;13506;50.852;20.632;2023-03-01T06:35:12;82.00;61.50;39.75
21358;PMS7003;13506;50.852;20.632;2023-03-01T06:37:43;79.75;59.00;38.50
21358;PMS7003;13506;50.852;20.632;2023-03-01T06:40:12;68.25;54.00;34.00
21358;PMS7003;13506;50.852;20.632;2023-03-01T06:42:42;73.00;55.75;36.75
21358;PMS7003;13506;50.852;20.632;2023-03-01T06:45:14;67.00;52.00;34.00
21358;PMS7003;13506;50.852;20.632;2023-03-01T06:47:43;70.50;55.00;35.25
21358;PMS7003;13506;50.852;20.632;2023-03-01T06:50:11;70.25;55.75;35.25
21358;PMS7003;13506;50.852;20.632;2023-03-01T06:52:40;72.50;54.50;35.25
21358;PMS7003;13506;50.852;20.632;2023-03-01T06:55:10;70.00;54.50;35.25
21358;PMS7003;13506;50.852;20.632;2023-03-01T06:57:38;69.25;53.00;34.25
21358;PMS7003;13506;50.852;20.632;2023-03-01T07:00:08;69.00;51.00;34.00
21358;PMS7003;13506;50.852;20.632;2023-03-01T07:02:38;69.75;51.50;33.00
21358;PMS7003;13506;50.852;20.632;2023-03-01T07:05:06;62.75;51.50;31.75
21358;PMS7003;13506;50.852;20.632;2023-03-01T07:07:34;61.25;47.75;31.00
21358;PMS7003;13506;50.852;20.632;2023-03-01T07:10:03;63.25;49.75;32.50
21358;PMS7003;13506;50.852;20.632;2023-03-01T07:12:32;62.75;47.25;31.00
21358;PMS7003;13506;50.852;20.632;2023-03-01T07:14:59;68.00;50.25;32.00
21358;PMS7003;13506;50.852;20.632;2023-03-01T07:17:29;67.25;51.50;31.50
21358;PMS7003;13506;50.852;20.632;2023-03-01T07:19:56;70.25;49.50;33.00
21358;PMS7003;13506;50.852;20.632;2023-03-01T07:22:24;61.00;49.00;32.00
21358;PMS7003;13506;50.852;20.632;2023-03-01T07:24:52;60.25;47.25;30.00
21358;PMS7003;13506;50.852;20.632;2023-03-01T07:27:20;59.50;47.00;30.25
21358;PMS7003;13506;50.852;20.632;2023-03-01T07:29:48;61.00;47.50;30.00
21358;PMS7003;13506;50.852;20.632;2023-03-01T07:32:16;58.25;44.75;29.00
21358;PMS7003;13506;50.852;20.632;2023-03-01T07:34:45;57.00;44.75;27.75
21358;PMS7003;13506;50.852;20.632;2023-03-01T07:37:13;53.50;43.75;27.00
21358;PMS7003;13506;50.852;20.632;2023-03-01T07:39:41;51.50;44.00;26.00
21358;PMS7003;13506;50.852;20.632;2023-03-01T07:42:09;47.50;40.25;26.00
21358;PMS7003;13506;50.852;20.632;2023-03-01T07:44:37;56.00;44.25;29.25
21358;PMS7003;13506;50.852;20.632;2023-03-01T07:47:05;60.75;49.25;31.00
21358;PMS7003;13506;50.852;20.632;2023-03-01T07:49:33;61.00;48.50;31.25
21358;PMS7003;13506;50.852;20.632;2023-03-01T07:52:03;65.50;50.25;32.00
21358;PMS7003;13506;50.852;20.632;2023-03-01T07:54:31;65.00;51.25;32.25
21358;PMS7003;13506;50.852;20.632;2023-03-01T07:56:59;68.50;51.50;33.25
21358;PMS7003;13506;50.852;20.632;2023-03-01T07:59:28;65.00;51.25;31.25
21358;PMS7003;13506;50.852;20.632;2023-03-01T08:01:57;61.00;50.00;31.75
21358;PMS7003;13506;50.852;20.632;2023-03-01T08:04:25;61.00;47.25;30.25
21358;PMS7003;13506;50.852;20.632;2023-03-01T08:06:53;64.75;51.75;32.75
21358;PMS7003;13506;50.852;20.632;2023-03-01T08:09:23;66.00;52.00;33.25
21358;PMS7003;13506;50.852;20.632;2023-03-01T08:11:51;64.25;50.25;32.50
21358;PMS7003;13506;50.852;20.632;2023-03-01T08:14:20;68.00;52.00;32.75
21358;PMS7003;13506;50.852;20.632;2023-03-01T08:16:48;64.75;50.50;32.00
21358;PMS7003;13506;50.852;20.632;2023-03-01T08:19:17;58.50;46.75;31.00
21358;PMS7003;13506;50.852;20.632;2023-03-01T08:21:45;61.00;48.50;31.00
21358;PMS7003;13506;50.852;20.632;2023-03-01T08:24:12;55.00;40.75;26.75
21358;PMS7003;13506;50.852;20.632;2023-03-01T08:26:42;54.00;44.75;26.00
21358;PMS7003;13506;50.852;20.632;2023-03-01T08:29:10;49.00;39.75;26.00
21358;PMS7003;13506;50.852;20.632;2023-03-01T08:31:38;56.25;42.00;25.75
21358;PMS7003;13506;50.852;20.632;2023-03-01T08:34:07;43.60;37.60;23.00
21358;PMS7003;13506;50.852;20.632;2023-03-01T08:36:38;44.50;38.00;24.50
21358;PMS7003;13506;50.852;20.632;2023-03-01T08:39:07;46.75;38.25;23.75
21358;PMS7003;13506;50.852;20.632;2023-03-01T08:41:36;48.25;39.25;25.75
21358;PMS7003;13506;50.852;20.632;2023-03-01T08:44:07;55.50;41.25;25.50
21358;PMS7003;13506;50.852;20.632;2023-03-01T08:46:36;48.50;40.50;25.75
21358;PMS7003;13506;50.852;20.632;2023-03-01T08:49:06;59.25;46.00;28.25
21358;PMS7003;13506;50.852;20.632;2023-03-01T08:51:35;60.50;48.00;31.00
21358;PMS7003;13506;50.852;20.632;2023-03-01T08:54:03;42.75;37.25;24.00
21358;PMS7003;13506;50.852;20.632;2023-03-01T08:56:33;47.60;37.80;23.00
21358;PMS7003;13506;50.852;20.632;2023-03-01T08:59:01;47.00;38.50;23.75
21358;PMS7003;13506;50.852;20.632;2023-03-01T09:01:30;48.00;39.25;23.75
21358;PMS7003;13506;50.852;20.632;2023-03-01T09:03:59;44.50;38.50;25.75
21358;PMS7003;13506;50.852;20.632;2023-03-01T09:06:29;46.80;35.80;22.20
21358;PMS7003;13506;50.852;20.632;2023-03-01T09:08:58;45.00;39.40;23.60
21358;PMS7003;13506;50.852;20.632;2023-03-01T09:11:27;42.20;35.60;22.00
21358;PMS7003;13506;50.852;20.632;2023-03-01T09:13:55;40.20;34.20;22.20
21358;PMS7003;13506;50.852;20.632;2023-03-01T09:16:24;43.20;37.20;24.40
21358;PMS7003;13506;50.852;20.632;2023-03-01T09:18:53;44.40;37.00;23.20
21358;PMS7003;13506;50.852;20.632;2023-03-01T09:21:22;40.20;36.40;23.00
21358;PMS7003;13506;50.852;20.632;2023-03-01T09:23:50;41.00;36.80;22.60
21358;PMS7003;13506;50.852;20.632;2023-03-01T09:26:20;40.00;34.60;22.60
21358;PMS7003;13506;50.852;20.632;2023-03-01T09:28:50;36.40;33.20;22.00
21358;PMS7003;13506;50.852;20.632;2023-03-01T09:31:20;45.00;37.20;22.00
21358;PMS7003;13506;50.852;20.632;2023-03-01T09:33:51;35.80;34.20;23.00
21358;PMS7003;13506;50.852;20.632;2023-03-01T09:36:22;48.00;35.40;21.60
21358;PMS7003;13506;50.852;20.632;2023-03-01T09:38:51;42.20;36.80;22.80
21358;PMS7003;13506;50.852;20.632;2023-03-01T09:41:26;39.60;35.00;23.00
21358;PMS7003;13506;50.852;20.632;2023-03-01T09:47:04;50.20;40.20;24.80
21358;PMS7003;13506;50.852;20.632;2023-03-01T09:49:39;58.50;46.00;28.00
21358;PMS7003;13506;50.852;20.632;2023-03-01T09:52:19;46.40;36.00;24.20
21358;PMS7003;13506;50.852;20.632;2023-03-01T09:54:54;54.20;40.00;24.60
21358;PMS7003;13506;50.852;20.632;2023-03-01T09:57:26;44.60;37.60;23.00
21358;PMS7003;13506;50.852;20.632;2023-03-01T10:00:13;47.60;38.20;23.40
21358;PMS7003;13506;50.852;20.632;2023-03-01T10:02:57;48.60;37.80;23.00
21358;PMS7003;13506;50.852;20.632;2023-03-01T10:05:33;48.20;37.80;23.60
21358;PMS7003;13506;50.852;20.632;2023-03-01T10:08:18;48.20;36.00;23.00
21358;PMS7003;13506;50.852;20.632;2023-03-01T10:11:02;48.25;39.50;23.00
21358;PMS7003;13506;50.852;20.632;2023-03-01T10:13:34;41.60;37.60;23.60
21358;PMS7003;13506;50.852;20.632;2023-03-01T10:16:15;48.50;38.50;24.00
21358;PMS7003;13506;50.852;20.632;2023-03-01T10:18:50;47.00;37.20;22.60
21358;PMS7003;13506;50.852;20.632;2023-03-01T10:21:23;36.00;33.60;21.60
21358;PMS7003;13506;50.852;20.632;2023-03-01T10:23:53;37.20;34.60;21.00
21358;PMS7003;13506;50.852;20.632;2023-03-01T10:26:28;34.20;30.20;20.20
21358;PMS7003;13506;50.852;20.632;2023-03-01T10:29:06;26.80;26.00;16.00
21358;PMS7003;13506;50.852;20.632;2023-03-01T10:31:40;33.20;30.00;17.00
21358;PMS7003;13506;50.852;20.632;2023-03-01T10:34:13;37.20;29.60;19.20
21358;PMS7003;13506;50.852;20.632;2023-03-01T10:36:44;31.60;29.00;19.40
21358;PMS7003;13506;50.852;20.632;2023-03-01T10:39:17;33.20;30.80;18.00
21358;PMS7003;13506;50.852;20.632;2023-03-01T10:41:54;36.20;31.40;17.20
21358;PMS7003;13506;50.852;20.632;2023-03-01T10:44:41;29.80;28.40;17.80
21358;PMS7003;13506;50.852;20.632;2023-03-01T10:47:14;32.40;29.40;17.00
21358;PMS7003;13506;50.852;20.632;2023-03-01T10:49:55;30.80;24.20;16.00
21358;PMS7003;13506;50.852;20.632;2023-03-01T10:52:28;31.40;29.40;17.60
21358;PMS7003;13506;50.852;20.632;2023-03-01T10:55:01;21.40;21.00;11.20
21358;PMS7003;13506;50.852;20.632;2023-03-01T10:57:50;32.60;24.00;15.40
21358;PMS7003;13506;50.852;20.632;2023-03-01T11:00:36;23.60;22.80;13.40
21358;PMS7003;13506;50.852;20.632;2023-03-01T11:03:17;32.00;24.00;15.00
21358;PMS7003;13506;50.852;20.632;2023-03-01T11:05:59;23.20;23.20;14.00
21358;PMS7003;13506;50.852;20.632;2023-03-01T11:08:31;25.80;20.80;12.20
21358;PMS7003;13506;50.852;20.632;2023-03-01T11:11:18;30.00;23.00;14.60
21358;PMS7003;13506;50.852;20.632;2023-03-01T11:13:54;30.40;24.20;14.00
21358;PMS7003;13506;50.852;20.632;2023-03-01T11:16:25;20.60;18.20;11.20
21358;PMS7003;13506;50.852;20.632;2023-03-01T11:18:56;34.20;24.20;12.20
21358;PMS7003;13506;50.852;20.632;2023-03-01T11:21:31;23.00;22.20;12.80
21358;PMS7003;13506;50.852;20.632;2023-03-01T11:24:03;23.80;23.40;13.00
21358;PMS7003;13506;50.852;20.632;2023-03-01T11:26:38;29.20;24.00;13.80
21358;PMS7003;13506;50.852;20.632;2023-03-01T11:29:12;26.20;21.60;13.60
21358;PMS7003;13506;50.852;20.632;2023-03-01T11:31:44;27.20;22.80;11.60
21358;PMS7003;13506;50.852;20.632;2023-03-01T11:34:16;24.60;21.60;13.20
21358;PMS7003;13506;50.852;20.632;2023-03-01T11:36:53;30.00;27.20;13.20
21358;PMS7003;13506;50.852;20.632;2023-03-01T11:39:31;25.60;23.80;13.00
21358;PMS7003;13506;50.852;20.632;2023-03-01T11:42:06;20.20;19.40;10.20
21358;PMS7003;13506;50.852;20.632;2023-03-01T11:44:40;23.80;19.00;11.40
21358;PMS7003;13506;50.852;20.632;2023-03-01T11:47:17;24.00;22.00;12.00
21358;PMS7003;13506;50.852;20.632;2023-03-01T11:49:57;44.60;38.20;25.00
21358;PMS7003;13506;50.852;20.632;2023-03-01T11:52:54;31.20;27.60;16.00
21358;PMS7003;13506;50.852;20.632;2023-03-01T11:55:40;25.60;21.20;12.00
21358;PMS7003;13506;50.852;20.632;2023-03-01T11:58:41;19.60;19.60;11.20
21358;PMS7003;13506;50.852;20.632;2023-03-01T12:01:43;20.80;18.40;12.00
21358;PMS7003;13506;50.852;20.632;2023-03-01T12:07:25;20.80;18.00;11.00
21358;PMS7003;13506;50.852;20.632;2023-03-01T12:10:17;22.00;15.40;9.80
21358;PMS7003;13506;50.852;20.632;2023-03-01T12:12:58;20.80;18.80;10.40
21358;PMS7003;13506;50.852;20.632;2023-03-01T12:15:55;21.20;17.00;8.20
21358;PMS7003;13506;50.852;20.632;2023-03-01T12:18:45;17.20;16.00;11.00
21358;PMS7003;13506;50.852;20.632;2023-03-01T12:21:29;16.40;13.40;8.00
21358;PMS7003;13506;50.852;20.632;2023-03-01T12:24:22;17.00;12.60;7.00
21358;PMS7003;13506;50.852;20.632;2023-03-01T12:27:21;20.80;17.20;10.80
21358;PMS7003;13506;50.852;20.632;2023-03-01T12:30:25;17.00;13.80;9.60
21358;PMS7003;13506;50.852;20.632;2023-03-01T12:33:09;16.20;15.60;8.00
21358;PMS7003;13506;50.852;20.632;2023-03-01T12:38:41;23.40;20.40;11.60
21358;PMS7003;13506;50.852;20.632;2023-03-01T12:44:19;23.00;19.20;11.60
21358;PMS7003;13506;50.852;20.632;2023-03-01T12:47:03;21.00;15.80;11.00
21358;PMS7003;13506;50.852;20.632;2023-03-01T12:49:41;15.40;15.40;7.60
21358;PMS7003;13506;50.852;20.632;2023-03-01T12:52:14;19.60;17.00;10.40
21358;PMS7003;13506;50.852;20.632;2023-03-01T12:54:49;20.60;19.40;10.00
21358;PMS7003;13506;50.852;20.632;2023-03-01T12:57:21;21.60;20.00;10.00
21358;PMS7003;13506;50.852;20.632;2023-03-01T13:00:11;20.80;18.60;8.00
21358;PMS7003;13506;50.852;20.632;2023-03-01T13:02:57;17.60;16.60;7.80
21358;PMS7003;13506;50.852;20.632;2023-03-01T13:05:38;23.80;17.20;10.80
21358;PMS7003;13506;50.852;20.632;2023-03-01T13:08:16;19.80;18.40;10.20
21358;PMS7003;13506;50.852;20.632;2023-03-01T13:10:54;23.20;19.00;11.00
21358;PMS7003;13506;50.852;20.632;2023-03-01T13:13:28;22.20;18.60;10.40
21358;PMS7003;13506;50.852;20.632;2023-03-01T13:15:57;20.00;16.40;9.20
21358;PMS7003;13506;50.852;20.632;2023-03-01T13:18:46;19.80;15.00;8.80
21358;PMS7003;13506;50.852;20.632;2023-03-01T13:21:14;18.00;17.00;11.00
21358;PMS7003;13506;50.852;20.632;2023-03-01T13:23:57;20.00;16.80;10.00
21358;PMS7003;13506;50.852;20.632;2023-03-01T13:26:25;26.20;22.80;15.00
21358;PMS7003;13506;50.852;20.632;2023-03-01T13:28:54;18.40;16.60;11.00
21358;PMS7003;13506;50.852;20.632;2023-03-01T13:34:40;19.40;18.60;10.20
21358;PMS7003;13506;50.852;20.632;2023-03-01T13:37:18;22.40;20.80;11.80
21358;PMS7003;13506;50.852;20.632;2023-03-01T13:39:55;19.80;18.00;11.00
21358;PMS7003;13506;50.852;20.632;2023-03-01T13:45:24;18.00;16.20;9.40
21358;PMS7003;13506;50.852;20.632;2023-03-01T13:48:02;20.20;16.60;10.40
21358;PMS7003;13506;50.852;20.632;2023-03-01T13:50:38;18.60;16.60;9.80
21358;PMS7003;13506;50.852;20.632;2023-03-01T13:53:16;20.00;18.60;10.20
21358;PMS7003;13506;50.852;20.632;2023-03-01T13:55:46;19.00;18.00;9.20
21358;PMS7003;13506;50.852;20.632;2023-03-01T13:58:21;22.80;16.40;10.20
21358;PMS7003;13506;50.852;20.632;2023-03-01T14:00:55;18.40;17.80;10.60
21358;PMS7003;13506;50.852;20.632;2023-03-01T14:03:27;17.00;15.00;8.00
21358;PMS7003;13506;50.852;20.632;2023-03-01T14:05:59;13.60;13.00;7.00
21358;PMS7003;13506;50.852;20.632;2023-03-01T14:08:33;21.20;17.60;9.00
21358;PMS7003;13506;50.852;20.632;2023-03-01T14:17:21;19.00;16.80;9.60
21358;PMS7003;13506;50.852;20.632;2023-03-01T14:20:16;18.50;16.25;7.00
21358;PMS7003;13506;50.852;20.632;2023-03-01T14:22:47;18.20;14.00;6.40
21358;PMS7003;13506;50.852;20.632;2023-03-01T14:25:26;16.00;15.00;10.00
21358;PMS7003;13506;50.852;20.632;2023-03-01T14:27:59;18.60;12.80;7.00